KCMI/CMI METAR and TAF weather

Enter ICAO airport designator
Station Type Date Time Source
KCMI METAR 2018/07/21 12:53 UTC NOAA

KCMI 211253Z 27010KT 10SM OVC016 20/19 A2977 RMK AO2 SLP076 T02000194


Station Type Date Time Source
KCMI Decoded METAR 2018/07/21 12:53 UTC NOAA

UNIV OF ILLINOIS-WILLARD, IL, United States (KCMI) 40-02N 088-16W 228M
Jul 21, 2018 - 08:53 AM EDT / 2018.07.21 1253 UTC
Wind: from the W (270 degrees) at 12 MPH (10 KT):0
Visibility: 10 mile(s):0
Sky conditions: overcast
Temperature: 68.0 F (20.0 C)
Dew Point: 66.9 F (19.4 C)
Relative Humidity: 96%
Pressure (altimeter): 29.77 in. Hg (1008 hPa)
ob: KCMI 211253Z 27010KT 10SM OVC016 20/19 A2977 RMK AO2 SLP076 T02000194
cycle: 13

Station Type Date Time Source
KCMI TAF 2018/07/21 12:36 UTC NOAA

TAF
AMD KCMI 211134Z 2112/2212 26010KT P6SM OVC025
FM211400 31012G22KT P6SM OVC025
FM211800 31013G22KT P6SM VCSH OVC040
FM220200 32010KT P6SM BKN080
FM220900 33010KT P6SM BKN020


Example: see airport list